Time;durP1;ratioP1;P1;durP2;ratioP2;P2;SDS_P1;SDS_P2;PMS_P1;PMS_P2;Temp;Humidity;BMP_temperature;BMP_pressure;BME280_temperature;BME280_humidity;BME280_pressure;Samples;Min_cycle;Max_cycle;Signal;HPM_P1;HPM_P2
2021/04/12 00:01:27;;;;;;;4.03;3.73;;;7.30;83.70;;;;;;5072460;28;20226;-84
2021/04/12 00:04:01;;;;;;;4.40;4.00;;;7.30;83.20;;;;;;5073243;28;20156;-84
2021/04/12 00:06:50;;;;;;;3.87;3.57;;;7.30;83.70;;;;;;5072579;28;20236;-83
2021/04/12 00:09:31;;;;;;;4.60;4.30;;;7.30;84.20;;;;;;5073310;28;20165;-84
2021/04/12 00:12:08;;;;;;;3.20;3.00;;;7.30;83.70;;;;;;5072239;28;20215;-84
2021/04/12 00:14:39;;;;;;;4.43;3.93;;;7.40;83.80;;;;;;5071846;28;20251;-86
2021/04/12 00:17:21;;;;;;;4.20;3.80;;;7.20;81.90;;;;;;5054470;28;20184;-85
2021/04/12 00:20:08;;;;;;;4.70;3.70;;;7.10;84.10;;;;;;5073232;28;20189;-84
2021/04/12 00:22:36;;;;;;;3.63;3.33;;;7.20;85.00;;;;;;5054621;28;20223;-85
2021/04/12 00:25:11;;;;;;;4.13;3.73;;;7.20;84.00;;;;;;5071516;28;20179;-83
2021/04/12 00:27:48;;;;;;;4.30;4.00;;;7.30;84.40;;;;;;5071959;28;20558;-83
2021/04/12 00:30:26;;;;;;;4.73;4.30;;;7.30;83.30;;;;;;5053839;28;20180;-84
2021/04/12 00:33:08;;;;;;;3.50;3.20;;;7.10;82.90;;;;;;5072524;28;20176;-85
2021/04/12 00:35:41;;;;;;;3.87;3.57;;;7.10;82.70;;;;;;5054107;28;20271;-84
2021/04/12 00:38:25;;;;;;;4.10;3.80;;;7.00;82.40;;;;;;5071820;28;20168;-84
2021/04/12 00:41:41;;;;;;;4.03;3.73;;;7.00;83.20;;;;;;5071512;28;20203;-84
2021/04/12 00:44:28;;;;;;;3.80;3.50;;;7.10;84.00;;;;;;5038821;28;20260;-85
2021/04/12 00:47:20;;;;;;;3.93;3.53;;;7.20;85.70;;;;;;5050955;28;20208;-85
2021/04/12 00:50:12;;;;;;;3.90;3.60;;;7.30;83.70;;;;;;5058504;28;20215;-84
2021/04/12 00:52:44;;;;;;;4.00;3.63;;;7.30;82.10;;;;;;5072125;28;20196;-84
2021/04/12 00:55:26;;;;;;;4.10;3.80;;;7.30;82.80;;;;;;5072377;28;20176;-84
2021/04/12 00:58:06;;;;;;;3.53;3.30;;;7.30;81.70;;;;;;5071620;28;20165;-85
2021/04/12 01:00:40;;;;;;;3.93;3.57;;;7.20;82.10;;;;;;5071155;28;20188;-84
2021/04/12 01:03:24;;;;;;;3.83;3.53;;;7.30;82.50;;;;;;5053210;28;20212;-84
2021/04/12 01:06:11;;;;;;;4.13;3.27;;;7.20;79.70;;;;;;5071957;28;20211;-84
2021/04/12 01:09:11;;;;;;;4.10;3.50;;;7.10;82.40;;;;;;5072112;28;20175;-85
2021/04/12 01:11:58;;;;;;;4.07;3.30;;;7.20;81.00;;;;;;5070786;28;20200;-85
2021/04/12 01:14:43;;;;;;;3.60;3.30;;;7.00;81.50;;;;;;5053919;28;20199;-85
2021/04/12 01:17:36;;;;;;;3.13;2.83;;;7.00;81.90;;;;;;5052142;28;20196;-84
2021/04/12 01:20:40;;;;;;;3.40;3.07;;;7.10;82.50;;;;;;5051150;28;20177;-85
2021/04/12 01:23:14;;;;;;;3.50;3.20;;;7.30;82.30;;;;;;5052328;28;20220;-84
2021/04/12 01:26:18;;;;;;;3.10;2.80;;;7.20;79.10;;;;;;5055135;28;20184;-84
2021/04/12 01:29:19;;;;;;;3.20;2.90;;;7.00;80.90;;;;;;5071231;28;20180;-84
2021/04/12 01:32:22;;;;;;;4.50;3.20;;;7.00;82.70;;;;;;5072234;28;20203;-84
2021/04/12 01:35:12;;;;;;;4.40;3.23;;;6.90;80.40;;;;;;5071224;28;20175;-84
2021/04/12 01:37:53;;;;;;;3.20;2.80;;;6.70;82.50;;;;;;5071128;28;20188;-85
2021/04/12 01:40:27;;;;;;;3.27;3.03;;;6.70;83.00;;;;;;5054433;28;20184;-84
2021/04/12 01:43:17;;;;;;;3.57;3.27;;;6.50;81.80;;;;;;5072308;28;20212;-84
2021/04/12 01:46:11;;;;;;;3.53;3.23;;;6.50;82.20;;;;;;5072794;28;20161;-83
2021/04/12 01:48:52;;;;;;;3.80;3.50;;;6.40;83.10;;;;;;5055097;28;20176;-84
2021/04/12 01:51:43;;;;;;;3.83;3.53;;;6.50;83.80;;;;;;5052895;28;20201;-84
2021/04/12 01:54:40;;;;;;;3.00;2.80;;;6.50;83.00;;;;;;5071738;28;20184;-84
2021/04/12 01:57:43;;;;;;;3.37;3.10;;;6.60;84.40;;;;;;5072437;28;20188;-83
2021/04/12 02:00:49;;;;;;;5.87;3.10;;;6.40;83.70;;;;;;5049492;28;20196;-84
2021/04/12 02:03:43;;;;;;;3.70;3.40;;;6.50;84.00;;;;;;5055654;28;20283;-84
2021/04/12 02:06:46;;;;;;;3.57;3.27;;;6.60;84.00;;;;;;5073935;28;20199;-84
2021/04/12 02:09:21;;;;;;;3.80;3.50;;;6.70;81.80;;;;;;5073945;28;20202;-83
2021/04/12 02:11:58;;;;;;;4.17;3.77;;;6.70;83.40;;;;;;5077437;28;20191;-81
2021/04/12 02:14:54;;;;;;;4.00;3.47;;;6.70;82.00;;;;;;5077800;28;20164;-82
2021/04/12 02:17:31;;;;;;;4.00;3.70;;;6.50;83.10;;;;;;5071060;28;20200;-85
2021/04/12 02:20:05;;;;;;;4.60;4.17;;;6.50;83.50;;;;;;5069766;28;20164;-84
2021/04/12 02:23:00;;;;;;;4.30;3.90;;;6.50;83.90;;;;;;5069653;28;20302;-84
2021/04/12 02:26:03;;;;;;;4.30;3.90;;;6.40;82.20;;;;;;5050294;28;20177;-84
2021/04/12 02:29:06;;;;;;;4.20;3.90;;;6.30;83.90;;;;;;5032075;28;20184;-84
2021/04/12 02:31:51;;;;;;;4.83;4.43;;;6.20;83.60;;;;;;5066550;28;20204;-85
2021/04/12 02:34:32;;;;;;;7.60;5.40;;;6.10;84.70;;;;;;5069480;28;20195;-85
2021/04/12 02:37:43;;;;;;;5.60;5.10;;;5.90;84.70;;;;;;5061242;28;20223;-84
2021/04/12 02:40:20;;;;;;;4.60;4.20;;;5.90;86.20;;;;;;5029601;28;20203;-84
2021/04/12 02:43:07;;;;;;;5.30;4.90;;;5.80;87.40;;;;;;5049314;28;20212;-84
2021/04/12 02:46:14;;;;;;;5.93;4.80;;;5.70;87.50;;;;;;5049088;28;20203;-83
2021/04/12 02:49:01;;;;;;;5.10;4.60;;;5.70;87.00;;;;;;5021327;28;20204;-84
2021/04/12 02:51:46;;;;;;;4.90;4.30;;;5.50;86.70;;;;;;5049277;28;20204;-84
2021/04/12 02:54:37;;;;;;;5.20;4.67;;;5.50;87.00;;;;;;5049365;28;20184;-84
2021/04/12 02:57:06;;;;;;;4.83;4.33;;;5.50;86.30;;;;;;5031833;28;20173;-84
2021/04/12 03:00:04;;;;;;;4.47;4.07;;;5.40;87.00;;;;;;5048673;28;20181;-84
2021/04/12 03:03:11;;;;;;;4.77;4.37;;;5.50;87.20;;;;;;5049347;28;20216;-84
2021/04/12 03:05:57;;;;;;;4.43;4.03;;;5.50;86.40;;;;;;5020222;28;20189;-84
2021/04/12 03:08:52;;;;;;;5.03;4.40;;;5.50;85.40;;;;;;5053786;28;20165;-84
2021/04/12 03:11:20;;;;;;;4.60;3.87;;;5.20;86.10;;;;;;5054132;28;20208;-83
2021/04/12 03:14:21;;;;;;;4.33;3.93;;;5.20;88.00;;;;;;5071981;28;20185;-83
2021/04/12 03:16:59;;;;;;;5.13;4.17;;;5.20;87.60;;;;;;5073065;28;20156;-83
2021/04/12 03:20:06;;;;;;;6.57;4.60;;;5.30;88.00;;;;;;5074192;28;20231;-84
2021/04/12 03:22:56;;;;;;;4.67;4.20;;;5.40;87.70;;;;;;5072549;28;20259;-84
2021/04/12 03:25:46;;;;;;;4.27;3.87;;;5.50;85.30;;;;;;5074129;28;20187;-84
2021/04/12 03:28:47;;;;;;;6.30;4.30;;;5.50;85.80;;;;;;5073691;28;20207;-84
2021/04/12 03:31:28;;;;;;;5.00;3.97;;;5.40;85.90;;;;;;5073659;28;20200;-85
2021/04/12 03:34:16;;;;;;;5.73;4.57;;;5.30;86.60;;;;;;5074275;28;20195;-85
2021/04/12 03:37:11;;;;;;;4.97;4.30;;;5.40;87.60;;;;;;5074578;28;20267;-84
2021/04/12 03:39:39;;;;;;;5.17;4.67;;;5.50;87.50;;;;;;5061112;28;20571;-84
2021/04/12 03:42:34;;;;;;;5.53;5.03;;;5.50;86.30;;;;;;5073915;28;20637;-84
2021/04/12 03:45:16;;;;;;;5.37;4.83;;;5.40;85.60;;;;;;5057267;28;20263;-84
2021/04/12 03:48:19;;;;;;;5.60;4.57;;;5.40;85.60;;;;;;5074384;28;20164;-85
2021/04/12 03:51:07;;;;;;;5.50;4.90;;;5.30;86.70;;;;;;5073541;28;20178;-86
2021/04/12 03:54:17;;;;;;;5.27;4.77;;;5.40;87.30;;;;;;5074064;28;20152;-85
2021/04/12 03:57:13;;;;;;;5.57;4.97;;;5.60;86.80;;;;;;5056836;28;20355;-86
2021/04/12 04:00:08;;;;;;;6.13;5.37;;;5.70;86.10;;;;;;5056900;28;20270;-85
2021/04/12 04:02:58;;;;;;;4.73;4.30;;;6.00;85.50;;;;;;5056497;28;20238;-85
2021/04/12 04:05:35;;;;;;;5.60;5.10;;;6.10;85.10;;;;;;5074785;28;20187;-85
2021/04/12 04:08:10;;;;;;;5.27;4.77;;;6.00;84.10;;;;;;5074419;28;20239;-85
2021/04/12 04:10:58;;;;;;;5.23;4.73;;;6.00;83.80;;;;;;5074381;28;20172;-85
2021/04/12 04:14:02;;;;;;;5.37;4.87;;;6.20;84.80;;;;;;5070922;28;20184;-86
2021/04/12 04:16:43;;;;;;;4.80;4.37;;;6.20;82.20;;;;;;5044408;28;20199;-85
2021/04/12 04:19:24;;;;;;;5.53;4.83;;;6.30;82.50;;;;;;5069347;28;20180;-85
2021/04/12 04:22:22;;;;;;;5.43;4.93;;;6.40;82.30;;;;;;5074941;28;20243;-84
2021/04/12 04:24:57;;;;;;;6.00;5.43;;;6.40;81.80;;;;;;5056378;28;20192;-85
2021/04/12 04:27:44;;;;;;;4.80;4.30;;;6.50;81.70;;;;;;5065903;28;20207;-85
2021/04/12 04:30:44;;;;;;;6.00;5.37;;;6.40;82.00;;;;;;5067481;28;20173;-85
2021/04/12 04:33:25;;;;;;;6.37;5.77;;;6.40;83.50;;;;;;5057087;28;20196;-86
2021/04/12 04:36:24;;;;;;;4.97;4.40;;;6.30;82.90;;;;;;5070655;28;20187;-85
2021/04/12 04:39:05;;;;;;;5.93;5.30;;;6.10;84.40;;;;;;5069659;28;20607;-85
2021/04/12 04:42:01;;;;;;;6.07;5.47;;;6.30;82.90;;;;;;5049879;28;20208;-86
2021/04/12 04:44:54;;;;;;;8.27;6.10;;;6.00;83.20;;;;;;5069160;28;20172;-85
2021/04/12 04:47:48;;;;;;;6.30;5.80;;;5.90;85.90;;;;;;5069202;28;20183;-85
2021/04/12 04:50:45;;;;;;;6.67;5.73;;;5.70;85.30;;;;;;5063677;28;20181;-85
2021/04/12 04:53:54;;;;;;;6.47;5.63;;;5.60;85.60;;;;;;5048070;28;20166;-85
2021/04/12 04:57:14;;;;;;;6.80;6.20;;;5.60;87.70;;;;;;5049363;28;20579;-85
2021/04/12 05:00:17;;;;;;;6.03;5.43;;;5.90;86.10;;;;;;4950101;29;20248;-85
2021/04/12 05:03:11;;;;;;;6.73;5.63;;;6.00;84.50;;;;;;5048202;28;20634;-86
2021/04/12 05:06:07;;;;;;;5.63;4.97;;;6.10;84.30;;;;;;5049747;28;20175;-85
2021/04/12 05:09:03;;;;;;;6.70;6.10;;;6.20;84.70;;;;;;5049907;28;20207;-86
2021/04/12 05:11:43;;;;;;;5.90;5.30;;;6.40;83.70;;;;;;5050894;28;20656;-86
2021/04/12 05:14:51;;;;;;;6.50;5.80;;;6.40;83.50;;;;;;5032364;28;20201;-85
2021/04/12 05:17:44;;;;;;;8.50;6.53;;;6.40;83.00;;;;;;5049104;28;20192;-85
2021/04/12 05:20:28;;;;;;;7.60;6.90;;;6.20;83.70;;;;;;5048377;28;20174;-85
2021/04/12 05:23:12;;;;;;;6.87;6.10;;;6.00;84.60;;;;;;5048850;28;20216;-85
2021/04/12 05:26:04;;;;;;;7.57;5.77;;;6.10;85.10;;;;;;5056320;28;20188;-85
2021/04/12 05:29:02;;;;;;;6.70;6.00;;;5.90;85.30;;;;;;5054366;28;20185;-85
2021/04/12 05:31:45;;;;;;;7.13;6.50;;;5.90;85.60;;;;;;5056623;28;20204;-85
2021/04/12 05:34:45;;;;;;;7.00;6.40;;;5.80;85.70;;;;;;5069305;28;20270;-86
2021/04/12 05:37:44;;;;;;;7.47;6.77;;;5.70;85.90;;;;;;5071074;28;20185;-85
2021/04/12 05:40:16;;;;;;;6.97;6.20;;;5.60;87.60;;;;;;5070669;28;20172;-85
2021/04/12 05:43:15;;;;;;;6.13;5.53;;;5.70;87.60;;;;;;5069729;28;20235;-85
2021/04/12 05:46:21;;;;;;;6.97;6.37;;;5.80;86.60;;;;;;5072916;28;20180;-86
2021/04/12 05:49:06;;;;;;;6.90;6.30;;;5.90;85.70;;;;;;5067648;28;20204;-85
2021/04/12 05:52:09;;;;;;;7.53;6.77;;;6.00;85.40;;;;;;5066369;28;20223;-84
2021/04/12 05:54:49;;;;;;;8.83;7.67;;;5.90;85.30;;;;;;5064540;28;20188;-85
2021/04/12 05:57:39;;;;;;;8.37;7.30;;;5.80;85.90;;;;;;5065575;28;20185;-85
2021/04/12 06:00:14;;;;;;;8.63;7.73;;;5.50;87.40;;;;;;5048980;28;20186;-86
2021/04/12 06:03:06;;;;;;;8.53;7.57;;;5.40;88.50;;;;;;5030776;28;20683;-85
2021/04/12 06:06:05;;;;;;;8.00;7.20;;;5.50;87.90;;;;;;5048337;28;20202;-84
2021/04/12 06:09:01;;;;;;;7.27;6.57;;;5.60;88.30;;;;;;5066610;28;20173;-86
2021/04/12 06:12:05;;;;;;;7.33;6.63;;;5.70;86.00;;;;;;5059893;28;20204;-85
2021/04/12 06:14:53;;;;;;;7.90;7.10;;;5.80;86.40;;;;;;5062321;28;20180;-85
2021/04/12 06:17:52;;;;;;;7.43;6.73;;;5.70;87.10;;;;;;5049400;28;20173;-85
2021/04/12 06:20:31;;;;;;;8.17;7.37;;;5.40;87.10;;;;;;5053913;28;20172;-86
2021/04/12 06:23:20;;;;;;;9.93;6.97;;;5.20;90.70;;;;;;5055120;28;20192;-85
2021/04/12 06:26:23;;;;;;;7.87;6.80;;;5.20;90.80;;;;;;5058588;28;20184;-85
2021/04/12 06:29:01;;;;;;;8.80;6.67;;;5.20;90.90;;;;;;5053292;28;20188;-86
2021/04/12 06:31:38;;;;;;;8.13;7.33;;;5.20;90.40;;;;;;5055756;28;20193;-86
2021/04/12 06:34:16;;;;;;;7.93;7.23;;;5.30;88.10;;;;;;5052347;28;20176;-85
2021/04/12 06:37:08;;;;;;;9.17;8.20;;;5.20;90.50;;;;;;5052304;28;20200;-85
2021/04/12 06:39:37;;;;;;;8.27;7.30;;;5.10;90.70;;;;;;5056743;28;20208;-85
2021/04/12 06:42:27;;;;;;;7.87;6.77;;;5.10;91.70;;;;;;5055952;28;20215;-85
2021/04/12 06:45:01;;;;;;;7.30;6.63;;;5.20;89.60;;;;;;5045863;28;20172;-85
2021/04/12 06:48:05;;;;;;;7.07;6.37;;;5.20;90.20;;;;;;5062588;28;20202;-85
2021/04/12 06:50:52;;;;;;;8.23;7.43;;;5.40;89.70;;;;;;5060381;28;20183;-85
2021/04/12 06:53:56;;;;;;;6.67;5.97;;;5.50;91.80;;;;;;5064006;28;20169;-85
2021/04/12 06:56:58;;;;;;;7.63;6.87;;;5.60;89.10;;;;;;5058184;28;20184;-85
2021/04/12 07:00:01;;;;;;;7.20;6.37;;;5.70;90.70;;;;;;5054158;28;20190;-84
2021/04/12 07:02:50;;;;;;;7.80;6.77;;;6.00;86.80;;;;;;5056968;28;20223;-85
2021/04/12 07:05:48;;;;;;;9.10;7.97;;;6.00;88.20;;;;;;5063859;28;20176;-85
2021/04/12 07:08:55;;;;;;;7.90;7.13;;;5.80;88.30;;;;;;5063288;28;20194;-85
2021/04/12 07:11:34;;;;;;;8.03;7.23;;;5.60;89.80;;;;;;4982125;28;20221;-85
2021/04/12 07:14:27;;;;;;;8.50;7.67;;;5.70;89.20;;;;;;5054624;28;20193;-86
2021/04/12 07:17:34;;;;;;;8.03;7.23;;;5.80;88.30;;;;;;5055926;28;20651;-86
2021/04/12 07:20:08;;;;;;;8.73;7.63;;;5.90;88.00;;;;;;5055439;28;20181;-85
2021/04/12 07:23:12;;;;;;;9.07;8.17;;;6.10;88.80;;;;;;5040779;28;20245;-85
2021/04/12 07:25:49;;;;;;;9.27;8.27;;;6.00;88.30;;;;;;5058218;28;20168;-84
2021/04/12 07:28:52;;;;;;;10.23;8.77;;;6.00;89.00;;;;;;5060633;28;20172;-85
2021/04/12 07:32:03;;;;;;;10.30;9.07;;;5.70;88.00;;;;;;5054360;28;20211;-84
2021/04/12 07:34:32;;;;;;;9.40;8.23;;;5.80;87.20;;;;;;5056144;28;20176;-86
2021/04/12 07:37:15;;;;;;;12.30;9.33;;;5.90;86.30;;;;;;5060036;28;20215;-85
2021/04/12 07:39:46;;;;;;;11.20;9.17;;;6.00;87.00;;;;;;5055172;28;20652;-85
2021/04/12 07:42:50;;;;;;;10.07;9.10;;;5.80;89.00;;;;;;5053982;28;20234;-84
2021/04/12 07:45:37;;;;;;;11.73;8.73;;;5.70;89.10;;;;;;5055472;28;20632;-85
2021/04/12 07:48:28;;;;;;;10.10;8.77;;;5.70;90.10;;;;;;5053383;28;20191;-84
2021/04/12 07:51:22;;;;;;;10.93;9.03;;;5.80;89.60;;;;;;5048821;28;20200;-85
2021/04/12 07:54:00;;;;;;;11.60;9.80;;;5.90;90.60;;;;;;5035058;28;20196;-85
2021/04/12 07:56:50;;;;;;;10.77;9.50;;;6.10;89.10;;;;;;5057465;28;20187;-83
2021/04/12 07:59:22;;;;;;;10.13;9.13;;;6.30;83.90;;;;;;5062001;28;20187;-84
2021/04/12 08:02:03;;;;;;;10.70;9.40;;;6.50;83.80;;;;;;5067767;28;20653;-84
2021/04/12 08:04:47;;;;;;;11.50;10.23;;;6.70;83.70;;;;;;5053622;28;20214;-84
2021/04/12 08:07:50;;;;;;;11.47;10.30;;;6.60;85.50;;;;;;5061965;28;20251;-85
2021/04/12 08:10:31;;;;;;;10.57;9.30;;;6.60;83.30;;;;;;5059099;28;20279;-85
2021/04/12 08:13:21;;;;;;;10.47;9.37;;;6.70;84.40;;;;;;5042086;28;20681;-85
2021/04/12 08:16:18;;;;;;;11.00;9.20;;;6.70;82.60;;;;;;5077555;28;20192;-85
2021/04/12 08:19:02;;;;;;;10.30;9.30;;;6.80;79.40;;;;;;5066849;28;20337;-86
2021/04/12 08:21:39;;;;;;;12.03;9.60;;;6.90;82.30;;;;;;5063820;28;20212;-86
2021/04/12 08:24:32;;;;;;;9.37;8.40;;;6.90;81.20;;;;;;5063808;28;20191;-85
2021/04/12 08:27:23;;;;;;;10.43;9.27;;;7.10;79.90;;;;;;5044621;28;20183;-87
2021/04/12 08:30:15;;;;;;;10.60;9.47;;;7.20;81.50;;;;;;5050361;28;20191;-85
2021/04/12 08:33:26;;;;;;;9.80;8.80;;;7.40;80.80;;;;;;5064509;28;20219;-85
2021/04/12 08:36:19;;;;;;;8.53;7.47;;;7.50;78.00;;;;;;5000345;28;20276;-85
2021/04/12 08:39:22;;;;;;;8.03;6.73;;;7.70;76.90;;;;;;5057923;28;20258;-86
2021/04/12 08:42:12;;;;;;;8.17;5.40;;;7.80;70.90;;;;;;5052230;28;20215;-84
2021/04/12 08:45:05;;;;;;;5.70;5.10;;;7.80;66.00;;;;;;5062212;28;20173;-84
2021/04/12 08:47:49;;;;;;;9.17;5.17;;;7.90;63.80;;;;;;5051132;28;20243;-86
2021/04/12 08:50:31;;;;;;;5.27;4.67;;;8.20;64.30;;;;;;5054169;28;20185;-85
2021/04/12 08:53:22;;;;;;;5.43;4.83;;;8.50;62.90;;;;;;5049836;28;20193;-85
2021/04/12 08:56:19;;;;;;;9.50;4.37;;;8.70;64.00;;;;;;5050099;28;20276;-83
2021/04/12 08:59:17;;;;;;;5.57;4.43;;;8.60;61.90;;;;;;5050049;28;20181;-84
2021/04/12 09:02:04;;;;;;;5.47;4.27;;;8.70;58.40;;;;;;5011220;28;20256;-84
2021/04/12 09:04:58;;;;;;;6.40;4.27;;;8.70;59.00;;;;;;5050770;28;20189;-87
2021/04/12 09:07:52;;;;;;;6.17;3.80;;;8.90;57.70;;;;;;5052070;28;20176;-85
2021/04/12 09:10:51;;;;;;;5.70;4.03;;;8.80;59.50;;;;;;5057715;28;20314;-85
2021/04/12 09:13:38;;;;;;;5.00;3.93;;;9.00;58.20;;;;;;5053910;28;20191;-84
2021/04/12 09:16:26;;;;;;;4.87;4.00;;;9.20;55.40;;;;;;5054046;28;20188;-85
2021/04/12 09:19:21;;;;;;;5.53;3.83;;;9.50;54.30;;;;;;5059051;28;20192;-86
2021/04/12 09:22:05;;;;;;;8.83;4.33;;;9.80;54.30;;;;;;5074994;28;20196;-84
2021/04/12 09:24:58;;;;;;;7.57;3.87;;;10.00;53.70;;;;;;5049024;28;20191;-86
2021/04/12 09:27:36;;;;;;;5.20;3.97;;;10.10;51.50;;;;;;5040299;28;20252;-85
2021/04/12 09:30:39;;;;;;;3.90;3.50;;;10.30;51.30;;;;;;5056217;28;20244;-86
2021/04/12 09:33:42;;;;;;;5.40;3.80;;;10.30;49.00;;;;;;5045975;28;20250;-86
2021/04/12 09:36:20;;;;;;;11.20;8.83;;;10.40;50.00;;;;;;5062980;28;20211;-86
2021/04/12 09:38:54;;;;;;;4.70;4.20;;;10.70;48.60;;;;;;5045082;28;20177;-85
2021/04/12 09:41:45;;;;;;;7.83;3.83;;;10.40;49.40;;;;;;5036101;28;20204;-84
2021/04/12 09:44:45;;;;;;;7.30;3.60;;;10.40;51.40;;;;;;5039152;28;20180;-85
2021/04/12 09:47:40;;;;;;;7.33;3.57;;;10.60;47.90;;;;;;5052977;28;20245;-84
2021/04/12 09:50:24;;;;;;;3.43;3.13;;;10.50;49.90;;;;;;5049897;28;20184;-84
2021/04/12 09:53:14;;;;;;;11.47;9.83;;;10.50;49.50;;;;;;5054196;28;20212;-85
2021/04/12 09:56:18;;;;;;;3.83;3.43;;;10.70;48.80;;;;;;5049983;28;20212;-85
2021/04/12 09:59:19;;;;;;;7.47;5.33;;;10.60;46.70;;;;;;5050237;28;20192;-85
2021/04/12 10:01:57;;;;;;;4.67;3.50;;;10.20;46.10;;;;;;5048433;28;20247;-84
2021/04/12 10:05:00;;;;;;;5.17;3.53;;;10.10;48.40;;;;;;5046539;28;20189;-87
2021/04/12 10:08:07;;;;;;;4.40;3.57;;;10.20;46.70;;;;;;5055396;28;20180;-85
2021/04/12 10:11:16;;;;;;;7.47;3.60;;;9.90;47.30;;;;;;5055554;28;20192;-84
2021/04/12 10:14:07;;;;;;;10.23;9.27;;;9.70;48.50;;;;;;5037604;28;20193;-85
2021/04/12 10:16:37;;;;;;;5.13;4.63;;;10.40;47.60;;;;;;5055574;28;20189;-85
2021/04/12 10:19:19;;;;;;;5.77;4.87;;;10.80;47.20;;;;;;5036009;28;20200;-84
2021/04/12 10:21:55;;;;;;;7.60;6.03;;;10.50;46.80;;;;;;5055180;28;20219;-84
2021/04/12 10:24:29;;;;;;;6.30;5.70;;;10.40;45.10;;;;;;5053750;28;20184;-85
2021/04/12 10:27:27;;;;;;;5.80;3.13;;;10.20;45.60;;;;;;5052312;28;20184;-87
2021/04/12 10:30:03;;;;;;;3.10;2.80;;;9.90;47.70;;;;;;5050420;28;20200;-87
2021/04/12 10:32:36;;;;;;;4.13;2.37;;;10.00;44.30;;;;;;5047404;28;20223;-87
2021/04/12 10:35:08;;;;;;;3.30;2.70;;;9.80;44.50;;;;;;5053496;28;20188;-87
2021/04/12 10:37:53;;;;;;;2.60;2.33;;;9.80;46.00;;;;;;5046671;28;20223;-87
2021/04/12 10:40:38;;;;;;;2.87;2.23;;;9.80;44.80;;;;;;5050186;28;20192;-87
2021/04/12 10:43:24;;;;;;;3.30;3.00;;;9.70;45.40;;;;;;5050882;28;20640;-86
2021/04/12 10:46:07;;;;;;;3.20;2.40;;;9.80;45.20;;;;;;5047251;28;20180;-87
2021/04/12 10:49:15;;;;;;;3.90;2.80;;;9.70;45.20;;;;;;5049711;28;20267;-87
2021/04/12 10:51:47;;;;;;;4.33;3.47;;;9.70;48.30;;;;;;5014457;28;20283;-87
2021/04/12 10:54:41;;;;;;;10.80;9.80;;;10.20;48.50;;;;;;5040843;28;20185;-87
2021/04/12 10:57:31;;;;;;;7.73;4.57;;;10.60;46.00;;;;;;5059727;28;20180;-88
2021/04/12 11:00:11;;;;;;;2.87;2.43;;;11.30;44.60;;;;;;5055074;28;20189;-85
2021/04/12 11:03:01;;;;;;;4.10;2.73;;;11.80;41.30;;;;;;5052461;28;20212;-87
2021/04/12 11:05:29;;;;;;;5.20;2.10;;;11.80;38.20;;;;;;5055205;28;20974;-87
2021/04/12 11:08:30;;;;;;;2.83;2.37;;;11.50;40.00;;;;;;5053802;28;20195;-87
2021/04/12 11:11:23;;;;;;;2.30;2.10;;;10.90;40.20;;;;;;5052196;28;20283;-87
2021/04/12 11:14:05;;;;;;;3.13;2.40;;;10.30;40.40;;;;;;5055871;28;20252;-86
2021/04/12 11:16:57;;;;;;;2.83;2.03;;;9.70;43.40;;;;;;5054784;28;20216;-87
2021/04/12 11:19:53;;;;;;;6.53;5.93;;;9.80;43.20;;;;;;5019640;28;20251;-88
2021/04/12 11:22:42;;;;;;;6.43;4.67;;;9.70;44.70;;;;;;5039530;28;20216;-86
2021/04/12 11:25:19;;;;;;;6.63;2.37;;;10.10;42.20;;;;;;5047854;28;20187;-89
2021/04/12 11:28:04;;;;;;;3.53;3.17;;;10.30;43.90;;;;;;5051021;28;20180;-88
2021/04/12 11:30:54;;;;;;;2.33;2.00;;;11.00;40.80;;;;;;5052774;28;20180;-87
2021/04/12 11:33:49;;;;;;;2.37;2.17;;;11.50;41.30;;;;;;5053837;28;20221;-87
2021/04/12 11:36:21;;;;;;;4.20;3.77;;;11.60;38.90;;;;;;5052114;28;20184;-86
2021/04/12 11:39:02;;;;;;;3.67;2.57;;;11.40;39.80;;;;;;5049982;28;20173;-87
2021/04/12 11:41:48;;;;;;;3.33;2.10;;;11.40;38.50;;;;;;5034805;28;20227;-87
2021/04/12 11:44:20;;;;;;;2.93;2.63;;;11.80;37.50;;;;;;5027877;28;20196;-88
2021/04/12 11:46:59;;;;;;;3.77;2.73;;;12.50;36.70;;;;;;5046842;28;20640;-88
2021/04/12 11:49:50;;;;;;;2.23;1.97;;;13.00;36.50;;;;;;5041881;28;20191;-88
2021/04/12 11:52:22;;;;;;;4.50;4.10;;;12.80;37.10;;;;;;5050787;28;20219;-86
2021/04/12 11:55:06;;;;;;;3.63;2.37;;;12.00;38.90;;;;;;5050530;28;20184;-87
2021/04/12 11:57:54;;;;;;;3.37;2.50;;;11.50;39.10;;;;;;5056090;28;20193;-87
2021/04/12 12:00:33;;;;;;;3.47;2.40;;;11.10;38.90;;;;;;5063386;28;20203;-87
2021/04/12 12:03:17;;;;;;;5.13;2.60;;;11.20;39.20;;;;;;5058160;28;20332;-84
2021/04/12 12:06:17;;;;;;;3.03;2.73;;;11.40;38.70;;;;;;5058692;28;20189;-86
2021/04/12 12:08:53;;;;;;;3.23;2.60;;;12.00;37.10;;;;;;5022558;28;20192;-87
2021/04/12 12:11:57;;;;;;;2.43;2.03;;;12.30;37.80;;;;;;5060317;28;20231;-87
2021/04/12 12:14:38;;;;;;;3.67;1.90;;;12.30;39.20;;;;;;5055660;28;20199;-87
2021/04/12 12:17:16;;;;;;;2.17;2.00;;;12.50;35.80;;;;;;5041305;28;20188;-88
2021/04/12 12:19:52;;;;;;;9.90;9.07;;;12.10;36.60;;;;;;5063470;28;20248;-87
2021/04/12 12:22:44;;;;;;;3.67;3.37;;;12.30;36.30;;;;;;5058884;28;20909;-89
2021/04/12 12:25:29;;;;;;;3.07;2.00;;;12.20;35.40;;;;;;5056934;28;20206;-87
2021/04/12 12:28:28;;;;;;;2.00;1.90;;;11.90;35.70;;;;;;5055421;28;20256;-88
2021/04/12 12:31:03;;;;;;;3.00;2.67;;;11.50;37.10;;;;;;5012701;28;20219;-88
2021/04/12 12:33:55;;;;;;;3.77;2.30;;;11.40;39.10;;;;;;5038924;28;20175;-87
2021/04/12 12:36:39;;;;;;;2.50;2.30;;;11.50;39.20;;;;;;5059784;28;20180;-87
2021/04/12 12:39:28;;;;;;;2.40;2.17;;;12.20;38.10;;;;;;5062770;28;20210;-86
2021/04/12 12:41:57;;;;;;;1.87;1.70;;;12.60;36.50;;;;;;5058624;28;20213;-87
2021/04/12 12:44:26;;;;;;;3.77;2.00;;;13.30;35.80;;;;;;5061443;28;20191;-85
2021/04/12 12:46:54;;;;;;;2.67;2.47;;;13.40;34.50;;;;;;5061772;28;20180;-86
2021/04/12 12:49:27;;;;;;;4.97;2.30;;;12.40;36.30;;;;;;5061658;28;20177;-87
2021/04/12 12:52:10;;;;;;;2.40;2.20;;;12.10;36.60;;;;;;5044305;28;20213;-88
2021/04/12 12:54:39;;;;;;;2.67;2.47;;;11.60;37.30;;;;;;5064095;28;20204;-87
2021/04/12 12:57:10;;;;;;;2.40;2.20;;;11.50;38.60;;;;;;5067707;28;20206;-88
2021/04/12 12:59:42;;;;;;;2.50;2.03;;;11.40;39.60;;;;;;5055033;28;20184;-87
2021/04/12 13:02:13;;;;;;;2.80;2.40;;;11.30;42.10;;;;;;5043040;28;20235;-87
2021/04/12 13:04:40;;;;;;;3.83;2.10;;;11.90;39.00;;;;;;5060363;28;20212;-88
2021/04/12 13:07:13;;;;;;;2.50;2.30;;;12.00;37.50;;;;;;5064080;28;20196;-87
2021/04/12 13:09:56;;;;;;;2.40;1.90;;;12.10;38.40;;;;;;5055888;28;20748;-87
2021/04/12 13:12:29;;;;;;;7.97;7.17;;;13.20;36.80;;;;;;5045337;28;20303;-87
2021/04/12 13:15:06;;;;;;;3.03;2.30;;;13.80;34.30;;;;;;5055366;28;20548;-86
2021/04/12 13:17:35;;;;;;;2.53;2.30;;;13.70;35.50;;;;;;5064705;28;20203;-87
2021/04/12 13:20:04;;;;;;;2.90;2.10;;;13.10;35.00;;;;;;5060351;28;20221;-88
2021/04/12 13:22:34;;;;;;;6.27;5.43;;;12.60;36.50;;;;;;5063354;28;20219;-87
2021/04/12 13:25:35;;;;;;;2.60;2.40;;;12.20;37.50;;;;;;5057549;28;20189;-89
2021/04/12 13:28:14;;;;;;;2.17;1.97;;;12.00;36.20;;;;;;5040186;28;20187;-87
2021/04/12 13:30:48;;;;;;;2.20;2.00;;;11.70;36.90;;;;;;5057087;28;20183;-88
2021/04/12 13:33:30;;;;;;;3.53;1.97;;;11.60;37.90;;;;;;5028109;28;20279;-89
2021/04/12 13:36:10;;;;;;;2.23;1.90;;;11.50;38.10;;;;;;5042485;28;20210;-87
2021/04/12 13:38:39;;;;;;;2.40;2.23;;;11.20;38.90;;;;;;5049473;28;20192;-88
2021/04/12 13:41:12;;;;;;;3.30;2.10;;;11.00;39.60;;;;;;5059335;28;20287;-87
2021/04/12 13:43:42;;;;;;;2.10;1.90;;;10.40;40.60;;;;;;5056388;28;20228;-89
2021/04/12 13:46:14;;;;;;;2.00;1.80;;;10.10;43.70;;;;;;5064494;28;20200;-88
2021/04/12 13:48:48;;;;;;;3.37;2.80;;;9.80;43.00;;;;;;5063416;28;20180;-85
2021/04/12 13:51:29;;;;;;;2.13;2.03;;;9.80;45.60;;;;;;5066894;28;20210;-87
2021/04/12 13:54:04;;;;;;;1.90;1.80;;;9.90;47.60;;;;;;5033613;28;20583;-87
2021/04/12 13:56:36;;;;;;;2.17;1.80;;;9.60;46.40;;;;;;5036614;28;20195;-87
2021/04/12 13:59:20;;;;;;;3.10;1.97;;;9.60;47.40;;;;;;5056463;28;20208;-87
2021/04/12 14:02:03;;;;;;;2.77;2.00;;;9.90;45.20;;;;;;5050358;28;20234;-87
2021/04/12 14:04:39;;;;;;;2.97;1.90;;;10.10;43.60;;;;;;5035063;28;20184;-88
2021/04/12 14:07:28;;;;;;;3.57;1.97;;;10.00;45.20;;;;;;5050499;28;20180;-88
2021/04/12 14:10:02;;;;;;;2.33;1.90;;;10.00;44.30;;;;;;5060824;28;20185;-88
2021/04/12 14:12:33;;;;;;;1.80;1.70;;;10.30;44.10;;;;;;5056439;28;20188;-87
2021/04/12 14:15:09;;;;;;;1.93;1.70;;;11.20;40.30;;;;;;5058150;28;20192;-86
2021/04/12 14:17:57;;;;;;;3.03;2.00;;;11.90;38.40;;;;;;5047880;28;20195;-87
2021/04/12 14:20:45;;;;;;;2.07;1.73;;;11.90;38.10;;;;;;5067194;28;20164;-89
2021/04/12 14:23:22;;;;;;;3.03;1.93;;;11.00;40.60;;;;;;5052903;28;20213;-87
2021/04/12 14:26:01;;;;;;;2.40;2.17;;;11.20;40.70;;;;;;5055162;28;20215;-88
2021/04/12 14:28:32;;;;;;;2.50;2.30;;;10.80;40.50;;;;;;5041699;28;20185;-87
2021/04/12 14:31:18;;;;;;;3.43;2.30;;;10.50;41.60;;;;;;5062223;28;20200;-88
2021/04/12 14:33:46;;;;;;;3.07;2.20;;;10.70;42.20;;;;;;5052591;28;20192;-89
2021/04/12 14:36:22;;;;;;;2.93;2.10;;;10.60;42.80;;;;;;5037408;28;20223;-91